Time;durP1;ratioP1;P1;durP2;ratioP2;P2;SDS_P1;SDS_P2;PMS_P1;PMS_P2;Temp;Humidity;BMP_temperature;BMP_pressure;BME280_temperature;BME280_humidity;BME280_pressure;Samples;Min_cycle;Max_cycle;Signal;HPM_P1;HPM_P2
2021/04/29 00:00:54;;;;;;;101.47;55.03;;;13.20;99.90;;;;;;5055273;28;20033;-72
2021/04/29 00:03:19;;;;;;;93.72;53.85;;;13.20;99.90;;;;;;5036986;28;20029;-71
2021/04/29 00:05:45;;;;;;;90.93;48.85;;;13.20;99.90;;;;;;5054806;28;20029;-71
2021/04/29 00:08:11;;;;;;;65.78;29.17;;;13.20;99.90;;;;;;5036942;28;20037;-71
2021/04/29 00:10:38;;;;;;;65.38;28.35;;;13.20;99.90;;;;;;5055053;28;20094;-72
2021/04/29 00:13:03;;;;;;;53.92;28.40;;;13.10;99.90;;;;;;5054850;28;20021;-72
2021/04/29 00:15:29;;;;;;;60.67;25.92;;;13.10;99.90;;;;;;5054996;28;20082;-72
2021/04/29 00:17:55;;;;;;;65.22;27.40;;;13.10;99.90;;;;;;5054678;28;20025;-72
2021/04/29 00:20:23;;;;;;;57.60;25.02;;;13.20;99.90;;;;;;5054700;28;20033;-71
2021/04/29 00:22:50;;;;;;;65.32;25.60;;;13.10;99.90;;;;;;5054653;28;20104;-72
2021/04/29 00:25:16;;;;;;;57.10;25.52;;;13.10;99.90;;;;;;5054558;28;20090;-71
2021/04/29 00:27:43;;;;;;;56.38;23.98;;;13.10;99.90;;;;;;5054593;28;20547;-72
2021/04/29 00:30:10;;;;;;;55.58;22.90;;;13.10;99.90;;;;;;5036636;28;20071;-72
2021/04/29 00:32:37;;;;;;;56.95;24.13;;;13.10;99.90;;;;;;5054509;28;20111;-71
2021/04/29 00:35:04;;;;;;;56.53;23.92;;;13.00;99.90;;;;;;5036164;28;20385;-72
2021/04/29 00:37:30;;;;;;;50.55;23.23;;;13.00;99.90;;;;;;5054432;28;20029;-72
2021/04/29 00:39:56;;;;;;;49.15;23.63;;;13.00;99.90;;;;;;5036452;28;20040;-71
2021/04/29 00:42:21;;;;;;;49.90;23.52;;;13.00;99.90;;;;;;5036509;28;20035;-73
2021/04/29 00:44:47;;;;;;;52.80;24.15;;;13.00;99.90;;;;;;5053984;28;20025;-73
2021/04/29 00:47:13;;;;;;;53.95;24.73;;;13.00;99.90;;;;;;5053897;28;20049;-74
2021/04/29 00:49:39;;;;;;;59.95;24.85;;;12.90;99.90;;;;;;5036334;28;20383;-73
2021/04/29 00:52:06;;;;;;;56.35;25.13;;;12.90;99.90;;;;;;5054223;28;20095;-73
2021/04/29 00:54:32;;;;;;;53.93;24.50;;;12.90;99.90;;;;;;5008572;28;782145;-73
2021/04/29 00:56:58;;;;;;;53.05;24.40;;;12.90;99.90;;;;;;5055189;28;20033;-72
2021/04/29 00:59:24;;;;;;;52.55;24.27;;;12.90;99.90;;;;;;5054840;28;20033;-73
2021/04/29 01:01:57;;;;;;;54.80;24.63;;;12.90;99.90;;;;;;5037293;28;20470;-73
2021/04/29 01:04:27;;;;;;;47.67;23.80;;;12.90;99.90;;;;;;5037171;28;20025;-71
2021/04/29 01:07:04;;;;;;;50.85;23.65;;;12.90;99.90;;;;;;5054917;28;20040;-72
2021/04/29 01:09:37;;;;;;;47.13;23.35;;;13.00;99.90;;;;;;5055047;28;20025;-72
2021/04/29 01:12:34;;;;;;;48.45;23.98;;;13.00;99.90;;;;;;5037095;28;20025;-72
2021/04/29 01:15:01;;;;;;;47.15;23.38;;;13.00;99.90;;;;;;5054882;28;20032;-73
2021/04/29 01:17:28;;;;;;;49.05;23.50;;;13.00;99.90;;;;;;5036533;28;20029;-72
2021/04/29 01:20:04;;;;;;;41.20;23.50;;;13.00;99.90;;;;;;5054782;28;20071;-72
2021/04/29 01:22:33;;;;;;;40.63;22.55;;;13.00;99.90;;;;;;5054774;28;20025;-72
2021/04/29 01:25:12;;;;;;;39.88;22.27;;;12.90;99.90;;;;;;5054878;28;20024;-72
2021/04/29 01:27:39;;;;;;;39.85;22.33;;;13.00;99.90;;;;;;5054672;28;20017;-73
2021/04/29 01:30:11;;;;;;;40.13;22.13;;;13.00;99.90;;;;;;5036656;28;20029;-70
2021/04/29 01:32:38;;;;;;;48.15;25.23;;;13.00;99.90;;;;;;5054580;28;20067;-72
2021/04/29 01:35:06;;;;;;;42.92;22.80;;;12.90;99.90;;;;;;5036612;28;20104;-72
2021/04/29 01:37:32;;;;;;;38.80;23.20;;;12.90;99.90;;;;;;5054377;28;20033;-72
2021/04/29 01:40:00;;;;;;;38.85;21.80;;;13.00;99.90;;;;;;5054651;28;20025;-71
2021/04/29 01:42:26;;;;;;;33.58;20.63;;;12.90;99.90;;;;;;5036461;28;20029;-71
2021/04/29 01:44:52;;;;;;;45.15;22.02;;;13.00;99.90;;;;;;5036382;28;20061;-73
2021/04/29 01:47:18;;;;;;;42.30;23.63;;;12.90;99.90;;;;;;5035545;28;20078;-73
2021/04/29 01:49:46;;;;;;;46.45;26.63;;;12.90;99.90;;;;;;5054403;28;20033;-71
2021/04/29 01:52:12;;;;;;;75.10;46.28;;;13.00;99.90;;;;;;5054185;28;20024;-70
2021/04/29 01:54:38;;;;;;;93.05;57.00;;;13.00;99.90;;;;;;5035895;28;20116;-70
2021/04/29 01:57:05;;;;;;;91.95;58.78;;;13.00;99.90;;;;;;5054087;28;20130;-70
2021/04/29 01:59:31;;;;;;;66.28;43.33;;;13.00;99.90;;;;;;5054015;28;20029;-71
2021/04/29 02:01:57;;;;;;;73.65;50.60;;;13.00;99.90;;;;;;5054010;28;20052;-70
2021/04/29 02:04:23;;;;;;;83.07;57.00;;;13.00;99.90;;;;;;5036037;28;20466;-72
2021/04/29 02:06:49;;;;;;;84.80;62.95;;;12.90;99.90;;;;;;5035835;28;20525;-70
2021/04/29 02:09:15;;;;;;;102.28;72.90;;;13.00;99.90;;;;;;5053787;28;20033;-70
2021/04/29 02:11:58;;;;;;;112.75;75.22;;;12.90;99.90;;;;;;5035837;28;20028;-69
2021/04/29 02:14:32;;;;;;;81.25;55.78;;;12.80;99.90;;;;;;5053735;28;20036;-69
2021/04/29 02:17:04;;;;;;;61.08;43.58;;;12.90;99.90;;;;;;5053728;28;20032;-73
2021/04/29 02:19:31;;;;;;;37.83;23.52;;;12.90;99.90;;;;;;5035774;28;20029;-70
2021/04/29 02:21:58;;;;;;;39.70;27.77;;;12.90;99.90;;;;;;5053602;28;20036;-72
2021/04/29 02:24:24;;;;;;;46.30;33.97;;;12.80;99.90;;;;;;5053642;28;20539;-70
2021/04/29 02:26:51;;;;;;;58.83;42.38;;;12.90;99.90;;;;;;5035560;28;20408;-71
2021/04/29 02:29:18;;;;;;;72.93;53.63;;;12.80;99.90;;;;;;5053512;28;20025;-72
2021/04/29 02:31:45;;;;;;;90.93;64.22;;;12.90;99.90;;;;;;5035518;28;20465;-71
2021/04/29 02:34:11;;;;;;;94.55;70.70;;;12.80;99.90;;;;;;5053758;28;20025;-70
2021/04/29 02:36:37;;;;;;;126.90;95.40;;;12.80;99.90;;;;;;5053048;28;20435;-71
2021/04/29 02:39:07;;;;;;;129.32;98.70;;;12.80;99.90;;;;;;5053320;28;20025;-69
2021/04/29 02:41:33;;;;;;;91.43;68.07;;;12.80;99.90;;;;;;5035158;28;20033;-70
2021/04/29 02:44:00;;;;;;;70.88;51.92;;;12.80;99.90;;;;;;5053307;28;20112;-70
2021/04/29 02:46:27;;;;;;;58.25;40.60;;;12.80;99.90;;;;;;5035186;28;20033;-69
2021/04/29 02:48:53;;;;;;;45.55;33.17;;;12.80;99.90;;;;;;5035268;28;20123;-69
2021/04/29 02:51:20;;;;;;;48.38;32.70;;;12.80;99.90;;;;;;5053193;28;20116;-70
2021/04/29 02:53:46;;;;;;;80.15;57.17;;;12.80;99.90;;;;;;5052849;28;20182;-69
2021/04/29 02:56:12;;;;;;;111.68;85.50;;;12.70;99.90;;;;;;5031365;28;20140;-70
2021/04/29 02:58:43;;;;;;;142.52;105.68;;;12.70;99.90;;;;;;5031752;28;20160;-70
2021/04/29 03:01:10;;;;;;;178.75;138.35;;;12.70;99.90;;;;;;5031870;28;20032;-69
2021/04/29 03:03:40;;;;;;;178.77;139.02;;;12.70;99.90;;;;;;5033125;28;20037;-68
2021/04/29 03:06:06;;;;;;;123.55;93.72;;;12.70;99.90;;;;;;5033013;28;20041;-70
2021/04/29 03:08:32;;;;;;;117.75;89.93;;;12.60;99.90;;;;;;5033064;28;20109;-70
2021/04/29 03:10:59;;;;;;;100.72;79.05;;;12.60;99.90;;;;;;5033052;28;20487;-69
2021/04/29 03:13:25;;;;;;;54.58;41.40;;;12.60;99.90;;;;;;5031792;28;20033;-70
2021/04/29 03:15:51;;;;;;;41.25;31.75;;;12.60;99.90;;;;;;5032945;28;20366;-69
2021/04/29 03:18:17;;;;;;;32.60;24.52;;;12.60;99.90;;;;;;5032953;28;20033;-70
2021/04/29 03:20:43;;;;;;;33.75;24.60;;;12.60;99.90;;;;;;5032948;28;20030;-69
2021/04/29 03:23:09;;;;;;;36.72;25.08;;;12.50;99.90;;;;;;5032967;28;20108;-69
2021/04/29 03:25:35;;;;;;;37.88;28.33;;;12.50;99.90;;;;;;5032540;28;20129;-68
2021/04/29 03:28:01;;;;;;;36.90;26.17;;;12.50;99.90;;;;;;5032912;28;20044;-71
2021/04/29 03:30:27;;;;;;;46.28;32.42;;;12.60;99.90;;;;;;5033103;28;20034;-71
2021/04/29 03:32:53;;;;;;;65.43;45.17;;;12.60;99.90;;;;;;5032895;28;20112;-71
2021/04/29 03:35:19;;;;;;;73.65;52.90;;;12.60;99.90;;;;;;5032850;28;20421;-70
2021/04/29 03:37:45;;;;;;;89.07;71.43;;;12.60;99.90;;;;;;5032512;28;20029;-72
2021/04/29 03:40:11;;;;;;;85.75;66.93;;;12.50;99.90;;;;;;5032751;28;20029;-71
2021/04/29 03:42:37;;;;;;;105.20;85.47;;;12.50;99.90;;;;;;5031412;28;20520;-68
2021/04/29 03:45:05;;;;;;;108.32;82.95;;;12.50;99.90;;;;;;5032669;28;20030;-70
2021/04/29 03:47:30;;;;;;;88.07;66.18;;;12.50;99.90;;;;;;5032684;28;20477;-70
2021/04/29 03:49:56;;;;;;;60.63;45.92;;;12.50;99.90;;;;;;5031359;28;20026;-70
2021/04/29 03:52:22;;;;;;;53.30;39.88;;;12.50;99.90;;;;;;5032588;28;20179;-69
2021/04/29 03:54:48;;;;;;;41.53;29.98;;;12.40;99.90;;;;;;5035699;28;20167;-70
2021/04/29 03:57:14;;;;;;;39.28;29.33;;;12.40;99.90;;;;;;5052544;28;20089;-70
2021/04/29 03:59:40;;;;;;;32.13;22.55;;;12.40;99.90;;;;;;5034478;28;20111;-70
2021/04/29 04:02:06;;;;;;;21.27;12.95;;;12.40;99.90;;;;;;5052729;28;20033;-69
2021/04/29 04:04:31;;;;;;;20.38;13.73;;;12.40;99.90;;;;;;5052454;28;20025;-71
2021/04/29 04:06:57;;;;;;;19.83;14.60;;;12.30;99.90;;;;;;5052375;28;20036;-72
2021/04/29 04:09:23;;;;;;;48.25;36.58;;;12.30;99.90;;;;;;5053517;28;20025;-71
2021/04/29 04:11:49;;;;;;;55.05;39.95;;;12.30;99.90;;;;;;5055769;28;20080;-69
2021/04/29 04:14:14;;;;;;;44.67;35.70;;;12.30;99.90;;;;;;5056017;28;20379;-70
2021/04/29 04:16:40;;;;;;;38.05;28.35;;;12.30;99.90;;;;;;5055754;28;20043;-70
2021/04/29 04:19:06;;;;;;;30.88;24.75;;;12.30;99.90;;;;;;5055948;28;20086;-70
2021/04/29 04:21:32;;;;;;;28.17;21.42;;;12.30;99.90;;;;;;5055856;28;20033;-70
2021/04/29 04:23:58;;;;;;;39.42;28.85;;;12.30;99.90;;;;;;5056167;28;20029;-73
2021/04/29 04:26:24;;;;;;;48.72;36.83;;;12.30;99.90;;;;;;5055395;28;20488;-71
2021/04/29 04:28:50;;;;;;;49.40;37.28;;;12.30;99.90;;;;;;5056018;28;20029;-70
2021/04/29 04:31:16;;;;;;;57.15;43.33;;;12.20;99.90;;;;;;5055690;28;20040;-71
2021/04/29 04:33:42;;;;;;;61.08;47.80;;;12.20;99.90;;;;;;5055708;28;20029;-71
2021/04/29 04:36:08;;;;;;;61.78;49.03;;;12.10;99.90;;;;;;5037656;28;20032;-70
2021/04/29 04:38:34;;;;;;;56.22;43.75;;;12.00;99.90;;;;;;5037689;28;20112;-70
2021/04/29 04:41:00;;;;;;;64.72;49.03;;;12.00;99.90;;;;;;5037340;28;20121;-71
2021/04/29 04:43:26;;;;;;;50.90;36.25;;;11.90;99.90;;;;;;5055519;28;20096;-69
2021/04/29 04:45:52;;;;;;;44.72;32.25;;;11.90;99.90;;;;;;5055358;28;20037;-71
2021/04/29 04:48:17;;;;;;;34.53;26.55;;;11.80;99.90;;;;;;5037425;28;20029;-70
2021/04/29 04:50:44;;;;;;;40.95;25.75;;;11.90;99.90;;;;;;5037441;28;20489;-69
2021/04/29 04:53:09;;;;;;;50.10;34.95;;;11.90;99.90;;;;;;5055524;28;20033;-70
2021/04/29 04:55:41;;;;;;;50.88;37.35;;;11.90;99.90;;;;;;5055036;28;20041;-70
2021/04/29 04:58:10;;;;;;;;;;;11.90;99.90;;;;;;5055686;28;20025;-69
2021/04/29 05:00:36;;;;;;;37.53;27.20;;;11.90;99.90;;;;;;5055440;28;19928;-69
2021/04/29 05:03:02;;;;;;;23.95;15.73;;;12.00;99.90;;;;;;5055107;28;20018;-72
2021/04/29 05:05:28;;;;;;;24.85;17.52;;;12.10;99.90;;;;;;5055037;28;20047;-70
2021/04/29 05:07:57;;;;;;;49.72;31.95;;;12.20;99.90;;;;;;5054974;28;20025;-71
2021/04/29 05:10:23;;;;;;;49.05;33.10;;;12.40;99.90;;;;;;5055231;28;20025;-71
2021/04/29 05:12:49;;;;;;;61.67;39.35;;;12.50;99.90;;;;;;5054857;28;20072;-70
2021/04/29 05:15:15;;;;;;;109.40;75.13;;;12.70;99.90;;;;;;5055119;28;20056;-69
2021/04/29 05:17:41;;;;;;;98.20;71.15;;;12.80;99.90;;;;;;5054767;28;20029;-70
2021/04/29 05:20:07;;;;;;;70.68;46.72;;;12.90;99.90;;;;;;5053977;28;20025;-70
2021/04/29 05:22:34;;;;;;;45.88;29.20;;;12.80;99.90;;;;;;5054056;28;20029;-70
2021/04/29 05:24:59;;;;;;;32.83;20.35;;;12.80;99.90;;;;;;5054983;28;20033;-70
2021/04/29 05:27:25;;;;;;;22.10;16.27;;;12.90;99.90;;;;;;5054496;28;20036;-70
2021/04/29 05:29:54;;;;;;;26.10;16.13;;;12.90;99.90;;;;;;5036663;28;20116;-72
2021/04/29 05:32:19;;;;;;;17.35;12.45;;;13.00;99.90;;;;;;5036416;28;20373;-71
2021/04/29 05:34:45;;;;;;;24.90;11.75;;;13.00;99.90;;;;;;5036443;28;20051;-71
2021/04/29 05:37:14;;;;;;;17.88;12.63;;;12.90;99.90;;;;;;5054266;28;20465;-69
2021/04/29 05:39:40;;;;;;;18.17;12.43;;;12.80;99.90;;;;;;5036033;28;20025;-69
2021/04/29 05:42:06;;;;;;;27.88;19.80;;;12.80;99.90;;;;;;5054049;28;20353;-69
2021/04/29 05:44:31;;;;;;;32.45;22.52;;;12.90;99.90;;;;;;5054279;28;20048;-69
2021/04/29 05:46:57;;;;;;;28.50;19.98;;;12.90;99.90;;;;;;5054172;28;20034;-69
2021/04/29 05:49:23;;;;;;;56.47;37.33;;;12.90;99.90;;;;;;5054124;28;20087;-70
2021/04/29 05:51:49;;;;;;;50.97;35.70;;;13.00;99.90;;;;;;5054089;28;20111;-70
2021/04/29 05:54:15;;;;;;;37.58;25.42;;;13.10;99.90;;;;;;5053935;28;20025;-70
2021/04/29 05:56:41;;;;;;;47.97;31.90;;;13.00;99.90;;;;;;5053478;28;20120;-71
2021/04/29 05:59:06;;;;;;;60.58;38.65;;;13.00;99.90;;;;;;5053890;28;20021;-70
2021/04/29 06:01:32;;;;;;;21.38;14.65;;;13.00;99.90;;;;;;5035964;28;20037;-71
2021/04/29 06:03:58;;;;;;;18.60;12.27;;;13.00;99.90;;;;;;5036081;28;20134;-70
2021/04/29 06:06:24;;;;;;;14.65;11.07;;;13.00;99.90;;;;;;5053668;28;20048;-71
2021/04/29 06:08:51;;;;;;;32.90;14.35;;;13.20;99.90;;;;;;5053706;28;20162;-70
2021/04/29 06:11:17;;;;;;;22.13;12.02;;;13.30;99.90;;;;;;5035665;28;20036;-69
2021/04/29 06:13:45;;;;;;;34.75;23.65;;;13.40;99.90;;;;;;5053297;28;20028;-70
2021/04/29 06:16:13;;;;;;;21.70;14.38;;;13.50;99.90;;;;;;5051120;28;20035;-72
2021/04/29 06:18:39;;;;;;;26.98;16.70;;;13.60;99.90;;;;;;5052536;28;20025;-68
2021/04/29 06:21:05;;;;;;;20.13;14.88;;;13.50;99.90;;;;;;5053089;28;20130;-68
2021/04/29 06:23:34;;;;;;;39.33;18.35;;;13.60;99.90;;;;;;5052915;28;20580;-67
2021/04/29 06:26:00;;;;;;;25.45;16.08;;;13.70;99.90;;;;;;5064565;28;20040;-70
2021/04/29 06:28:27;;;;;;;18.88;14.80;;;13.90;99.90;;;;;;5055345;28;20427;-70
2021/04/29 06:30:56;;;;;;;52.75;35.90;;;14.00;99.90;;;;;;5072999;28;20067;-69
2021/04/29 06:33:25;;;;;;;43.95;31.92;;;14.10;99.90;;;;;;5072675;28;20060;-71
2021/04/29 06:35:52;;;;;;;40.58;28.90;;;14.10;99.90;;;;;;5073310;28;20024;-71
2021/04/29 06:38:18;;;;;;;23.35;15.00;;;14.10;99.90;;;;;;5073571;28;20021;-69
2021/04/29 06:40:44;;;;;;;25.25;18.98;;;14.20;99.90;;;;;;5073060;28;20024;-70
2021/04/29 06:43:10;;;;;;;35.83;25.25;;;14.30;99.90;;;;;;5072974;28;20025;-70
2021/04/29 06:45:36;;;;;;;15.88;11.70;;;14.40;99.90;;;;;;5054961;28;20082;-70
2021/04/29 06:48:03;;;;;;;15.52;10.52;;;14.60;99.90;;;;;;5055045;28;20373;-71
2021/04/29 06:50:28;;;;;;;15.80;12.80;;;14.70;99.90;;;;;;5054951;28;20063;-69
2021/04/29 06:52:54;;;;;;;16.15;12.05;;;14.80;99.90;;;;;;5072559;28;20052;-70
2021/04/29 06:55:20;;;;;;;18.75;10.40;;;14.90;99.90;;;;;;5070314;28;20084;-72
2021/04/29 06:57:47;;;;;;;18.92;10.90;;;14.90;99.90;;;;;;5073285;28;20028;-70
2021/04/29 07:00:13;;;;;;;15.05;10.27;;;15.00;99.90;;;;;;5055071;28;20415;-70
2021/04/29 07:02:39;;;;;;;24.63;18.73;;;15.00;99.90;;;;;;5072816;28;20035;-70
2021/04/29 07:05:05;;;;;;;13.90;10.95;;;15.10;99.90;;;;;;5072512;28;20024;-71
2021/04/29 07:07:31;;;;;;;14.30;9.95;;;15.20;99.90;;;;;;5054774;28;20472;-71
2021/04/29 07:09:57;;;;;;;38.22;28.38;;;15.30;99.90;;;;;;5072797;28;20125;-72
2021/04/29 07:12:23;;;;;;;43.88;32.03;;;15.30;99.90;;;;;;5054698;28;20463;-71
2021/04/29 07:14:49;;;;;;;19.25;13.55;;;15.40;99.90;;;;;;5073059;28;20350;-71
2021/04/29 07:17:15;;;;;;;15.30;10.15;;;;;;;;;;5052014;28;20041;-70
2021/04/29 07:19:41;;;;;;;24.25;17.90;;;15.90;99.90;;;;;;5051873;28;20052;-70
2021/04/29 07:22:07;;;;;;;18.50;14.48;;;15.80;99.90;;;;;;5051022;28;20071;-71
2021/04/29 07:24:33;;;;;;;32.53;22.15;;;15.90;99.90;;;;;;5052526;28;20524;-70
2021/04/29 07:27:02;;;;;;;38.55;26.75;;;16.10;99.90;;;;;;5050904;28;20167;-72
2021/04/29 07:29:28;;;;;;;43.63;35.55;;;16.30;99.90;;;;;;5052632;28;20028;-71
2021/04/29 07:31:54;;;;;;;38.90;28.23;;;16.50;99.90;;;;;;5051319;28;20033;-71
2021/04/29 07:34:20;;;;;;;20.85;15.32;;;16.50;99.90;;;;;;5052197;28;20362;-71
2021/04/29 07:36:46;;;;;;;26.42;19.33;;;16.60;99.90;;;;;;5051337;28;20029;-71
2021/04/29 07:39:12;;;;;;;46.22;33.22;;;16.60;99.90;;;;;;5052382;28;20033;-71
2021/04/29 07:41:38;;;;;;;20.10;16.13;;;16.60;99.90;;;;;;5051183;28;20056;-71
2021/04/29 07:44:04;;;;;;;73.97;59.08;;;16.60;99.90;;;;;;5053104;28;20029;-71
2021/04/29 07:46:31;;;;;;;23.88;14.90;;;16.60;99.90;;;;;;5056501;28;20033;-71
2021/04/29 07:48:57;;;;;;;15.02;11.38;;;16.60;99.90;;;;;;5056456;28;20052;-70
2021/04/29 07:51:23;;;;;;;19.33;15.43;;;16.70;99.90;;;;;;5055118;28;20029;-71
2021/04/29 07:53:49;;;;;;;30.65;25.85;;;16.90;99.90;;;;;;5054287;28;20027;-74
2021/04/29 07:56:15;;;;;;;27.20;20.77;;;17.10;99.90;;;;;;5049710;28;20039;-74
2021/04/29 07:58:40;;;;;;;21.65;16.90;;;17.50;99.90;;;;;;5039424;28;20037;-72
2021/04/29 08:01:06;;;;;;;37.58;25.83;;;17.80;99.90;;;;;;5037809;28;20026;-72
2021/04/29 08:03:32;;;;;;;44.25;30.10;;;18.10;99.00;;;;;;5073929;28;20082;-72
2021/04/29 08:05:58;;;;;;;20.20;15.00;;;18.30;99.00;;;;;;5057162;28;20391;-75
2021/04/29 08:08:24;;;;;;;22.35;16.38;;;18.20;99.00;;;;;;5061119;28;20021;-71
2021/04/29 08:10:50;;;;;;;25.25;16.65;;;18.00;99.70;;;;;;5055868;28;20031;-71
2021/04/29 08:13:16;;;;;;;22.80;12.70;;;18.00;99.60;;;;;;5057570;28;20021;-72
2021/04/29 08:15:43;;;;;;;20.55;11.48;;;18.20;99.30;;;;;;5045894;28;20070;-72
2021/04/29 08:18:10;;;;;;;17.20;11.73;;;18.20;99.50;;;;;;5065569;28;20460;-72
2021/04/29 08:20:37;;;;;;;18.65;12.07;;;18.40;99.30;;;;;;5067104;28;20107;-72
2021/04/29 08:23:04;;;;;;;15.68;11.10;;;18.60;99.90;;;;;;5070472;28;20033;-72
2021/04/29 08:25:30;;;;;;;18.50;10.20;;;18.70;99.90;;;;;;5054977;28;20033;-72
2021/04/29 08:27:56;;;;;;;13.10;10.02;;;18.80;98.80;;;;;;5041947;28;20115;-73
2021/04/29 08:30:26;;;;;;;14.73;10.43;;;18.90;99.10;;;;;;5055024;28;20377;-71
2021/04/29 08:32:56;;;;;;;34.33;28.55;;;18.40;98.40;;;;;;5055525;28;20071;-71
2021/04/29 08:35:23;;;;;;;29.48;23.10;;;18.60;98.50;;;;;;5054819;28;20025;-74
2021/04/29 08:37:49;;;;;;;25.88;18.55;;;18.70;99.30;;;;;;5037564;28;20040;-73
2021/04/29 08:40:15;;;;;;;26.20;15.60;;;18.90;99.90;;;;;;5053970;28;20036;-74
2021/04/29 08:42:42;;;;;;;23.33;13.25;;;19.10;99.10;;;;;;5055333;28;20027;-71
2021/04/29 08:45:11;;;;;;;20.35;13.05;;;19.20;98.40;;;;;;5055278;28;20037;-72
2021/04/29 08:47:38;;;;;;;18.52;14.45;;;19.40;99.90;;;;;;5053779;28;20508;-72
2021/04/29 08:50:06;;;;;;;19.58;13.93;;;19.50;97.20;;;;;;5057126;28;20074;-71
2021/04/29 08:52:32;;;;;;;24.42;17.35;;;19.60;98.20;;;;;;5057200;28;20028;-71
2021/04/29 08:54:59;;;;;;;26.75;18.80;;;19.80;98.30;;;;;;5074748;28;20052;-70
2021/04/29 08:57:25;;;;;;;24.02;16.77;;;19.90;98.00;;;;;;5057129;28;20380;-71
2021/04/29 08:59:52;;;;;;;17.23;11.63;;;20.10;98.40;;;;;;5075192;28;20056;-72
2021/04/29 09:02:34;;;;;;;18.70;13.40;;;20.40;96.80;;;;;;5074993;28;20055;-71
2021/04/29 09:05:24;;;;;;;16.00;13.55;;;20.60;96.60;;;;;;5074834;28;20089;-71
2021/04/29 09:08:04;;;;;;;16.13;10.38;;;20.80;98.30;;;;;;5074527;28;20473;-71
2021/04/29 09:10:33;;;;;;;18.73;11.68;;;20.90;96.80;;;;;;5074561;28;20423;-71
2021/04/29 09:13:01;;;;;;;19.15;14.07;;;21.10;96.20;;;;;;5074836;28;20036;-71
2021/04/29 09:15:29;;;;;;;25.80;11.93;;;21.10;94.40;;;;;;5074679;28;20028;-71
2021/04/29 09:18:10;;;;;;;15.40;9.40;;;21.20;94.40;;;;;;5056689;28;20098;-72
2021/04/29 09:20:49;;;;;;;13.35;9.15;;;21.50;95.30;;;;;;5056227;28;20021;-71
2021/04/29 09:23:18;;;;;;;13.57;9.15;;;21.60;94.40;;;;;;5074734;28;20070;-71
2021/04/29 09:25:53;;;;;;;11.02;8.25;;;21.80;95.60;;;;;;5074259;28;20025;-71
2021/04/29 09:28:21;;;;;;;12.70;8.38;;;21.90;93.70;;;;;;5074498;28;20544;-71
2021/04/29 09:30:47;;;;;;;12.07;8.65;;;22.10;92.60;;;;;;5074245;28;20021;-71
2021/04/29 09:33:12;;;;;;;13.45;9.77;;;22.20;93.60;;;;;;5074257;28;20031;-70
2021/04/29 09:35:40;;;;;;;9.70;8.35;;;22.40;93.10;;;;;;5074499;28;20500;-71
2021/04/29 09:38:12;;;;;;;11.48;8.63;;;22.60;92.70;;;;;;5056376;28;20472;-71
2021/04/29 09:40:43;;;;;;;18.58;9.32;;;22.80;92.90;;;;;;5074373;28;20029;-72
2021/04/29 09:43:09;;;;;;;13.13;9.48;;;23.00;90.00;;;;;;5074425;28;20024;-72
2021/04/29 09:45:37;;;;;;;12.30;7.60;;;22.90;91.00;;;;;;5056086;28;20037;-70
2021/04/29 09:48:19;;;;;;;11.55;8.27;;;;;;;;;;5056037;28;20028;-70
2021/04/29 09:50:48;;;;;;;11.65;7.20;;;;;;;;;;5056243;28;20674;-70
2021/04/29 09:53:16;;;;;;;10.23;7.30;;;;;;;;;;5074039;28;20125;-73
2021/04/29 09:55:50;;;;;;;10.95;8.30;;;;;;;;;;5073217;28;20048;-72
2021/04/29 09:58:17;;;;;;;12.10;7.30;;;;;;;;;;5073939;28;20062;-72
2021/04/29 10:00:53;;;;;;;10.57;6.75;;;;;;;;;;5073894;28;20028;-73
2021/04/29 10:03:21;;;;;;;9.98;6.30;;;;;;;;;;5055922;28;20060;-72
2021/04/29 10:05:53;;;;;;;19.83;7.97;;;;;;;;;;5073683;28;20029;-72
2021/04/29 10:08:19;;;;;;;;;;;;;;;;;;5073560;28;20028;-72
2021/04/29 10:10:47;;;;;;;13.15;7.07;;;;;;;;;;5073956;28;19918;-72
2021/04/29 10:13:14;;;;;;;10.57;5.80;;;;;;;;;;5073709;28;20033;-72
2021/04/29 10:15:43;;;;;;;8.85;5.78;;;;;;;;;;5055503;28;20063;-72
2021/04/29 10:18:10;;;;;;;8.30;4.72;;;;;;;;;;5055732;28;20021;-72
2021/04/29 10:20:41;;;;;;;11.60;5.10;;;;;;;;;;5073377;28;20021;-72
2021/04/29 10:23:10;;;;;;;8.05;4.53;;;;;;;;;;5073529;28;20025;-72
2021/04/29 10:25:37;;;;;;;8.75;5.00;;;;;;;;;;5073366;28;20071;-71
2021/04/29 10:28:05;;;;;;;9.23;5.10;;;;;;;;;;5055476;28;20039;-71
2021/04/29 10:30:32;;;;;;;11.27;4.53;;;;;;;;;;5073380;28;20060;-72
2021/04/29 10:32:59;;;;;;;11.18;4.45;;;;;;;;;;5055437;28;20123;-71
2021/04/29 10:35:28;;;;;;;6.72;3.60;;;;;;;;;;5073295;28;20133;-72
2021/04/29 10:38:03;;;;;;;7.57;4.43;;;28.30;59.40;;;;;;5073285;28;20024;-72
2021/04/29 10:40:40;;;;;;;10.57;4.35;;;28.50;58.60;;;;;;5055310;28;20112;-72
2021/04/29 10:43:09;;;;;;;10.40;4.60;;;29.30;58.50;;;;;;5055331;28;20021;-72
2021/04/29 10:45:35;;;;;;;7.80;3.80;;;30.00;57.40;;;;;;5073064;28;20032;-71
2021/04/29 10:48:05;;;;;;;9.00;4.25;;;;;;;;;;5073067;28;20028;-72
2021/04/29 10:50:41;;;;;;;9.98;3.80;;;;;;;;;;5072551;28;20145;-71
2021/04/29 10:53:07;;;;;;;7.60;3.90;;;;;;;;;;5072962;28;20027;-72
2021/04/29 10:55:43;;;;;;;9.05;3.17;;;29.80;50.50;;;;;;5054694;28;20040;-71
2021/04/29 10:58:23;;;;;;;12.00;3.55;;;29.00;52.40;;;;;;5073163;28;20040;-72
2021/04/29 11:01:09;;;;;;;8.73;3.83;;;28.00;53.10;;;;;;5073097;28;20067;-71
2021/04/29 11:03:37;;;;;;;7.10;4.25;;;28.10;55.00;;;;;;5072868;28;20028;-72
2021/04/29 11:06:12;;;;;;;5.30;3.78;;;28.00;55.90;;;;;;5072820;28;20033;-72
2021/04/29 11:08:40;;;;;;;11.30;3.90;;;;;;;;;;5054914;28;20111;-72
2021/04/29 11:11:06;;;;;;;7.60;3.72;;;;;;;;;;5072890;28;20025;-73
2021/04/29 11:13:32;;;;;;;6.50;3.20;;;;;;;;;;5054961;28;20116;-70
2021/04/29 11:16:01;;;;;;;9.23;3.58;;;;;;;;;;5054902;28;20052;-70
2021/04/29 11:18:27;;;;;;;9.05;4.10;;;;;;;;;;5074343;28;20111;-72
2021/04/29 11:20:55;;;;;;;10.20;3.38;;;;;;;;;;5059041;28;20032;-71
2021/04/29 11:23:27;;;;;;;10.63;3.65;;;;;;;;;;5076839;28;20524;-71
2021/04/29 11:26:10;;;;;;;10.18;3.70;;;;;;;;;;5076712;28;20111;-71
2021/04/29 11:28:36;;;;;;;9.50;3.72;;;;;;;;;;5076852;28;20082;-71
2021/04/29 11:31:03;;;;;;;8.25;3.63;;;;;;;;;;5076871;28;20020;-71
2021/04/29 11:33:32;;;;;;;9.20;3.25;;;;;;;;;;5076572;28;20104;-71
2021/04/29 11:35:59;;;;;;;6.90;2.65;;;;;;;;;;5076748;28;20086;-72
2021/04/29 11:38:25;;;;;;;5.68;2.83;;;;;;;;;;5076713;28;20024;-72
2021/04/29 11:40:51;;;;;;;8.18;2.80;;;;;;;;;;5076661;28;20024;-71
2021/04/29 11:43:18;;;;;;;6.68;3.03;;;;;;;;;;5076677;28;20025;-72
2021/04/29 11:45:45;;;;;;;5.68;3.25;;;;;;;;;;5058337;28;20032;-73
2021/04/29 11:48:15;;;;;;;8.23;3.72;;;;;;;;;;5058523;28;20016;-71
2021/04/29 11:50:52;;;;;;;9.75;3.97;;;;;;;;;;5058440;28;20116;-69
2021/04/29 11:53:23;;;;;;;8.00;3.45;;;;;;;;;;5076428;28;20024;-72
2021/04/29 11:55:55;;;;;;;9.82;3.63;;;;;;;;;;5075783;28;20127;-72
2021/04/29 11:58:21;;;;;;;10.40;3.15;;;;;;;;;;5076279;28;20100;-72
2021/04/29 12:00:52;;;;;;;8.85;3.13;;;;;;;;;;5058278;28;20107;-71
2021/04/29 12:03:18;;;;;;;6.95;3.17;;;;;;;;;;5075868;28;20385;-71
2021/04/29 12:05:46;;;;;;;4.50;3.35;;;;;;;;;;5075921;28;20558;-72
2021/04/29 12:08:17;;;;;;;7.45;3.75;;;;;;;;;;5076154;28;20476;-71
2021/04/29 12:10:45;;;;;;;9.27;2.92;;;;;;;;;;5058020;28;20033;-71
2021/04/29 12:13:11;;;;;;;10.32;3.35;;;;;;;;;;5058096;28;20025;-70
2021/04/29 12:15:38;;;;;;;7.13;3.13;;;;;;;;;;5057998;28;20533;-71
2021/04/29 12:18:04;;;;;;;11.75;3.72;;;;;;;;;;5069000;28;20052;-70
2021/04/29 12:20:31;;;;;;;6.05;3.42;;;;;;;;;;5054627;28;20461;-71
2021/04/29 12:22:57;;;;;;;7.50;3.40;;;39.60;33.60;;;;;;5055696;28;20056;-72
2021/04/29 12:25:23;;;;;;;8.75;3.40;;;39.40;34.80;;;;;;5054371;28;20029;-71
2021/04/29 12:27:49;;;;;;;8.23;3.20;;;40.10;35.00;;;;;;5055885;28;20028;-72
2021/04/29 12:30:16;;;;;;;9.70;3.13;;;39.80;33.80;;;;;;5055103;28;20556;-71
2021/04/29 12:32:45;;;;;;;5.35;2.50;;;40.50;33.80;;;;;;5054288;28;20075;-72
2021/04/29 12:35:28;;;;;;;6.07;2.90;;;40.90;32.50;;;;;;5055625;28;20029;-72
2021/04/29 12:37:54;;;;;;;9.23;3.38;;;40.30;33.30;;;;;;5055700;28;20032;-72
2021/04/29 12:40:28;;;;;;;9.57;3.33;;;40.60;33.90;;;;;;5055278;28;20029;-72
2021/04/29 12:43:09;;;;;;;10.70;3.55;;;41.00;34.40;;;;;;5054228;28;20051;-72
2021/04/29 12:45:44;;;;;;;;;;;41.30;32.50;;;;;;5054547;28;20392;-72
2021/04/29 12:48:11;;;;;;;9.73;2.78;;;41.30;32.70;;;;;;5055494;28;19911;-72
2021/04/29 12:50:37;;;;;;;6.13;2.97;;;41.50;32.10;;;;;;5054016;28;20025;-72